Kezdőlap
METAR-TAF:

METAR-TAF

Repülőterek :

Szolnok, Magyarország

MH 86. Szolnok Helikopter Bázis

földrajzi szélesség: 47-07N, földrajzi hosszúság: 020-14E, magasság: 89 m

Jelenlegi meteorológiai megfigyelések

A jelentés 38 perccel ezelõtt készült, 17:15 UTC
Kelet-északkeleti szél 10 kt
Hőmérséklet -7°C
Páratartalom 57%
Légköri nyomás 1022 hPa
Látótávolság 10 km, vagy több
felhőtlen 1500 m magasságban, és nincs gomolyfelhõ

METAR: LHSN 251715Z 06010KT CAVOK M07/M14 Q1022 NOSIG RMK BLU

Idő: 18:53 (17:53 UTC)

Előrejelzés

A jelentés 38 perccel ezelõtt készült, 17:15 UTC
Az előrejelzés 25-én 18 óra UTC és 26-én 03 óra UTC között érvényes
Északkeleti szél 12 kt
Látótávolság 10 km, vagy több
felhőtlen 1500 m magasságban, és nincs gomolyfelhõ

TAF: LHSN 251715Z 2518/2603 05012KT CAVOK

Meteorológiai megfigyelések és előrejelzések több, mint 4000 repülőtéren (METAR és TAF jelentéseket).

A térképen piros és sárga pontok jelzik az elérhető meteorológiai állomásokat.

Mozgassa az egeret a pont fölött, hogy megjelenjen az állomás neve.

Azután kattintson az időjárási megfigyelések és előrejelzések megtekintéséhez.

A térkép megváltoztatása: kattintson a fekete keresztel jelölt zöld gombra ráközelítéshez, a vonallal jelölt zöld gombra távolításhoz, vagy a zöld nyilakra a szomszédos térképek eléréséhez.


METAR-TAF: